createdAt,value
2022-12-15T07:39:41.701Z,91.60
2022-12-15T07:42:08.538Z,91.60
2022-12-15T07:44:35.512Z,91.70
2022-12-15T07:47:02.383Z,92.00
2022-12-15T07:49:29.213Z,91.90
2022-12-15T07:51:58.462Z,92.20
2022-12-15T07:54:25.402Z,92.40
2022-12-15T07:56:52.399Z,92.40
2022-12-15T07:59:19.858Z,92.20
2022-12-15T08:01:46.981Z,92.10
2022-12-15T08:04:14.549Z,91.80
2022-12-15T08:06:41.590Z,91.90
2022-12-15T08:09:08.496Z,91.80
2022-12-15T08:11:35.418Z,91.90
2022-12-15T08:14:04.563Z,91.90
2022-12-15T08:16:34.640Z,91.80
2022-12-15T08:19:02.476Z,91.70
2022-12-15T08:21:31.259Z,91.70
2022-12-15T08:23:58.274Z,92.20
2022-12-15T08:26:30.368Z,91.80
2022-12-15T08:29:24.588Z,91.50
2022-12-15T08:31:47.640Z,96.30
2022-12-15T08:34:14.511Z,98.80
2022-12-15T08:36:41.341Z,99.20
2022-12-15T08:39:08.324Z,95.90
2022-12-15T08:41:35.272Z,91.80
2022-12-15T08:44:02.448Z,91.70
2022-12-15T08:46:32.297Z,91.90
2022-12-15T08:49:00.134Z,91.60
2022-12-15T08:51:29.262Z,91.30
2022-12-15T08:53:59.408Z,91.80
2022-12-15T08:56:27.338Z,91.90
2022-12-15T08:59:02.017Z,92.00
2022-12-15T09:01:32.066Z,91.80
2022-12-15T09:04:03.955Z,91.80
2022-12-15T09:06:36.733Z,91.80
2022-12-15T09:09:07.672Z,91.50
2022-12-15T09:11:35.240Z,91.30
2022-12-15T09:14:02.585Z,90.90
2022-12-15T09:16:29.894Z,90.80
2022-12-15T09:19:01.399Z,90.80
2022-12-15T09:21:30.419Z,90.70
2022-12-15T09:24:02.052Z,90.70
2022-12-15T09:26:34.290Z,90.90
2022-12-15T09:29:02.072Z,91.20
2022-12-15T09:31:36.296Z,90.90
2022-12-15T09:34:03.846Z,91.30
2022-12-15T09:36:32.846Z,91.00
2022-12-15T09:39:01.990Z,91.10
2022-12-15T09:41:32.477Z,90.80
2022-12-15T09:44:07.588Z,90.80
2022-12-15T09:46:40.744Z,90.90
2022-12-15T09:49:49.585Z,90.80
2022-12-15T09:52:20.605Z,90.90
2022-12-15T09:54:47.592Z,90.90
2022-12-15T09:57:35.244Z,91.40
2022-12-15T10:00:07.418Z,91.30
2022-12-15T10:02:58.297Z,91.30
2022-12-15T10:06:15.534Z,91.10
2022-12-15T10:08:33.619Z,90.90
2022-12-15T10:11:30.370Z,90.80
2022-12-15T10:14:29.725Z,90.80
2022-12-15T10:17:14.309Z,90.60
2022-12-15T10:20:00.809Z,90.70
2022-12-15T10:22:32.619Z,90.80
2022-12-15T10:25:14.318Z,91.50
2022-12-15T10:28:10.643Z,91.40
2022-12-15T10:30:49.727Z,90.60
2022-12-15T10:33:19.587Z,91.10
2022-12-15T10:35:48.034Z,91.30
2022-12-15T10:38:34.442Z,90.80
2022-12-15T10:41:08.559Z,91.10
2022-12-15T10:43:41.869Z,91.70
2022-12-15T10:46:15.609Z,91.50
2022-12-15T10:48:48.394Z,91.00
2022-12-15T10:51:24.639Z,91.10
2022-12-15T10:53:55.277Z,90.80
2022-12-15T10:56:33.214Z,90.40
2022-12-15T10:59:20.162Z,90.40
2022-12-15T11:01:47.059Z,90.00
2022-12-15T11:04:54.421Z,90.20
2022-12-15T11:07:22.315Z,90.10
2022-12-15T11:09:49.484Z,93.30
2022-12-15T11:12:38.449Z,91.90
2022-12-15T11:15:23.610Z,88.80
2022-12-15T11:17:57.786Z,88.60
2022-12-15T11:20:37.599Z,89.80
2022-12-15T11:23:33.274Z,88.60
2022-12-15T11:26:20.720Z,90.40
2022-12-15T11:28:54.848Z,87.10
2022-12-15T11:31:40.342Z,87.20
2022-12-15T11:34:19.726Z,88.00
2022-12-15T11:37:07.559Z,86.60
2022-12-15T11:39:49.149Z,85.60
2022-12-15T11:42:52.098Z,85.20
2022-12-15T11:45:35.015Z,83.60
2022-12-15T11:48:17.288Z,82.40
2022-12-15T11:50:46.948Z,82.60
2022-12-15T11:53:37.952Z,81.60
2022-12-15T11:56:16.602Z,81.30
2022-12-15T11:59:01.415Z,81.80
2022-12-15T12:04:57.624Z,81.80
2022-12-15T12:07:53.647Z,81.80
2022-12-15T12:10:52.698Z,81.90
2022-12-15T12:13:19.736Z,82.00
2022-12-15T12:15:55.883Z,81.90
2022-12-15T12:18:32.289Z,81.10
2022-12-15T12:21:10.424Z,81.30
2022-12-15T12:23:48.262Z,84.30
2022-12-15T12:26:46.306Z,81.40
2022-12-15T12:29:20.854Z,80.40
2022-12-15T12:31:57.637Z,84.30
2022-12-15T12:34:55.048Z,81.90
2022-12-15T12:37:44.784Z,80.50
2022-12-15T12:40:36.662Z,80.20
2022-12-15T12:43:08.636Z,80.90
2022-12-15T12:45:41.678Z,80.50
2022-12-15T12:48:26.473Z,79.90
2022-12-15T12:51:21.510Z,79.50
2022-12-15T12:53:48.764Z,80.70
2022-12-15T12:56:37.738Z,83.40
2022-12-15T12:59:41.870Z,78.90
2022-12-15T13:02:14.412Z,79.60
2022-12-15T13:04:42.583Z,79.40
2022-12-15T13:07:32.300Z,79.80
2022-12-15T13:10:08.306Z,80.30
2022-12-15T13:12:52.031Z,80.40
2022-12-15T13:15:31.318Z,80.10
2022-12-15T13:18:06.585Z,80.70
2022-12-15T13:20:36.174Z,80.80
2022-12-15T13:23:21.692Z,81.60
2022-12-15T13:26:01.498Z,81.60
2022-12-15T13:28:40.007Z,82.30
2022-12-15T13:31:19.361Z,83.20
2022-12-15T13:34:14.127Z,84.90
2022-12-15T13:36:40.898Z,87.20
2022-12-15T13:39:16.886Z,88.30
2022-12-15T13:42:07.903Z,89.70
2022-12-15T13:44:48.668Z,89.90
2022-12-15T13:47:22.131Z,90.30
2022-12-15T13:50:01.824Z,90.70
2022-12-15T13:55:50.996Z,90.70
2022-12-15T13:58:20.185Z,90.60
2022-12-15T14:00:55.366Z,91.20
2022-12-15T14:03:23.345Z,91.40
2022-12-15T14:05:55.182Z,91.80
2022-12-15T14:08:24.148Z,91.60
2022-12-15T14:10:56.797Z,92.10
2022-12-15T14:13:29.746Z,92.10
2022-12-15T14:16:20.366Z,91.90
2022-12-15T14:19:15.114Z,92.60
2022-12-15T14:21:59.495Z,93.50
2022-12-15T14:24:38.944Z,92.20
2022-12-15T14:27:07.581Z,92.60
2022-12-15T14:29:34.488Z,92.60
2022-12-15T14:32:01.967Z,92.80
2022-12-15T14:34:32.324Z,92.70
2022-12-15T14:37:03.471Z,92.80
2022-12-15T14:39:50.383Z,92.70
2022-12-15T14:42:28.983Z,92.90
2022-12-15T14:48:38.940Z,93.20
2022-12-15T14:50:49.114Z,93.30
2022-12-15T14:53:19.901Z,93.30
2022-12-15T14:55:46.949Z,93.20
2022-12-15T14:58:34.675Z,93.80
2022-12-15T15:01:05.608Z,94.70
2022-12-15T15:03:12.648Z,82.20
2022-12-15T15:03:38.207Z,94.30
2022-12-15T15:06:11.330Z,94.30
2022-12-15T15:08:52.851Z,94.40
2022-12-15T15:11:29.899Z,94.50
2022-12-15T15:14:00.711Z,94.70
2022-12-15T15:16:27.836Z,94.60
2022-12-15T15:18:56.252Z,94.50
2022-12-15T15:21:26.319Z,94.20
2022-12-15T15:24:34.947Z,94.30
2022-12-15T15:27:40.126Z,94.70
2022-12-15T15:30:41.182Z,94.40
2022-12-15T15:33:09.485Z,94.60
2022-12-15T15:35:41.092Z,94.50
2022-12-15T15:38:27.131Z,95.40
2022-12-15T15:41:00.255Z,94.30
2022-12-15T15:43:28.781Z,94.40
2022-12-15T15:46:03.321Z,94.50
2022-12-15T15:48:39.384Z,94.10
2022-12-15T15:51:08.727Z,93.90
2022-12-15T15:53:36.291Z,96.00
2022-12-15T15:56:08.175Z,94.20
2022-12-15T15:58:36.333Z,94.30
2022-12-15T16:01:08.098Z,94.10
2022-12-15T16:03:38.784Z,93.90
2022-12-15T16:06:08.206Z,93.70
2022-12-15T16:08:36.856Z,93.80
2022-12-15T16:11:03.977Z,94.40
2022-12-15T16:13:30.840Z,94.00
2022-12-15T16:16:00.479Z,94.40
2022-12-15T16:18:27.392Z,94.70
2022-12-15T16:20:54.290Z,94.80
2022-12-15T16:23:29.390Z,95.00
2022-12-15T16:26:00.308Z,94.70
2022-12-15T16:28:29.928Z,94.70
2022-12-15T16:31:01.584Z,94.90
2022-12-15T16:33:28.550Z,95.30
2022-12-15T16:35:55.417Z,95.40
2022-12-15T16:38:28.055Z,95.60
2022-12-15T16:40:55.738Z,95.60
2022-12-15T16:43:32.881Z,95.60
2022-12-15T16:46:03.580Z,95.30
2022-12-15T16:48:31.041Z,95.40
2022-12-15T16:51:02.628Z,95.50
2022-12-15T16:53:33.227Z,95.40
2022-12-15T16:56:02.945Z,95.30
2022-12-15T16:58:31.333Z,95.20
2022-12-15T17:00:58.610Z,95.20
2022-12-15T17:03:28.839Z,94.70
2022-12-15T17:06:01.937Z,94.60
2022-12-15T17:08:40.071Z,95.30
2022-12-15T17:11:13.091Z,94.40
2022-12-15T17:13:45.754Z,94.60
2022-12-15T17:16:16.177Z,95.50
2022-12-15T17:18:44.572Z,95.40
2022-12-15T17:21:11.630Z,95.40
2022-12-15T17:23:40.170Z,95.00
2022-12-15T17:26:25.731Z,95.90
2022-12-15T17:28:55.354Z,95.00
2022-12-15T17:31:24.382Z,94.80
2022-12-15T17:33:52.675Z,94.80
2022-12-15T17:36:24.599Z,95.10
2022-12-15T17:38:58.009Z,95.50
2022-12-15T17:41:57.478Z,96.10
2022-12-15T17:44:38.730Z,96.80
2022-12-15T17:47:06.970Z,96.90
2022-12-15T17:49:37.638Z,96.90
2022-12-15T17:52:19.354Z,96.70
2022-12-15T17:54:46.334Z,96.60
2022-12-15T17:57:13.553Z,97.20
2022-12-15T17:59:40.511Z,96.60
2022-12-15T18:02:14.299Z,97.10
2022-12-15T18:04:42.549Z,97.00
2022-12-15T18:07:20.889Z,96.50
2022-12-15T18:09:52.131Z,96.40
2022-12-15T18:12:28.489Z,96.00
2022-12-15T18:14:56.279Z,95.90
2022-12-15T18:17:24.051Z,96.50
2022-12-15T18:19:50.911Z,96.20
2022-12-15T18:22:23.876Z,96.20
2022-12-15T18:24:53.379Z,96.60
2022-12-15T18:27:23.460Z,96.90
2022-12-15T18:29:50.718Z,96.10
2022-12-15T18:32:18.984Z,96.30
2022-12-15T18:34:46.807Z,96.40
2022-12-15T18:37:16.580Z,97.20
2022-12-15T18:39:43.640Z,97.60
2022-12-15T18:42:21.308Z,98.20
2022-12-15T18:44:51.761Z,99.90
2022-12-15T18:47:23.893Z,99.30
2022-12-15T18:49:51.727Z,99.30
2022-12-15T18:52:21.442Z,98.00
2022-12-15T18:54:53.255Z,98.30
2022-12-15T18:57:35.852Z,95.40
2022-12-15T19:00:13.367Z,96.50
2022-12-15T19:02:41.541Z,97.70
2022-12-15T19:05:27.489Z,97.60
2022-12-15T19:07:59.587Z,93.70
2022-12-15T19:10:31.895Z,94.20
2022-12-15T19:12:59.146Z,93.20
2022-12-15T19:15:26.242Z,93.30
2022-12-15T19:18:11.537Z,93.30
2022-12-15T19:20:57.339Z,96.90
2022-12-15T19:23:24.814Z,94.30
2022-12-15T19:25:52.978Z,94.60
2022-12-15T19:28:22.633Z,94.40
2022-12-15T19:30:49.638Z,94.30
2022-12-15T19:33:18.018Z,94.50
2022-12-15T19:35:50.249Z,94.50
2022-12-15T19:38:27.370Z,94.30
2022-12-15T19:40:55.866Z,94.00
2022-12-15T19:43:23.848Z,94.10
2022-12-15T19:45:52.101Z,94.40
2022-12-15T19:48:24.158Z,94.40
2022-12-15T19:50:52.122Z,94.30
2022-12-15T19:53:27.701Z,94.00
2022-12-15T19:55:57.235Z,94.00
2022-12-15T19:58:32.569Z,94.10
2022-12-15T20:01:02.688Z,94.40
2022-12-15T20:03:34.414Z,94.40
2022-12-15T20:06:02.775Z,94.30
2022-12-15T20:08:37.893Z,94.40
2022-12-15T20:11:05.175Z,94.30
2022-12-15T20:13:32.387Z,94.30
2022-12-15T20:15:59.517Z,94.40
2022-12-15T20:18:26.393Z,94.30
2022-12-15T20:20:53.510Z,94.20
2022-12-15T20:23:26.071Z,94.10
2022-12-15T20:25:53.502Z,94.40
2022-12-15T20:28:24.540Z,94.30
2022-12-15T20:30:52.174Z,94.00
2022-12-15T20:33:19.571Z,94.20
2022-12-15T20:35:48.185Z,94.00
2022-12-15T20:38:24.884Z,94.00
2022-12-15T20:40:53.643Z,94.10
2022-12-15T20:43:22.082Z,93.90
2022-12-15T20:45:58.086Z,94.00
2022-12-15T20:48:25.661Z,94.10
2022-12-15T20:50:53.555Z,94.00
2022-12-15T20:53:23.250Z,93.90
2022-12-15T20:55:52.368Z,94.50
2022-12-15T20:58:25.059Z,94.40
2022-12-15T21:00:55.259Z,94.90
2022-12-15T21:03:24.530Z,94.70
2022-12-15T21:05:54.642Z,94.70
2022-12-15T21:08:28.451Z,94.60
2022-12-15T21:11:10.928Z,94.60
2022-12-15T21:13:38.291Z,94.80
2022-12-15T21:16:05.691Z,95.20
2022-12-15T21:21:31.914Z,95.10
2022-12-15T21:24:00.979Z,95.40
2022-12-15T21:26:28.377Z,95.80
2022-12-15T21:28:57.635Z,95.90
2022-12-15T21:31:24.737Z,96.10
2022-12-15T21:33:51.818Z,96.50
2022-12-15T21:36:20.584Z,96.00
2022-12-15T21:38:54.962Z,96.30
2022-12-15T21:41:23.022Z,95.90
2022-12-15T21:43:50.335Z,96.10
2022-12-15T21:46:27.732Z,96.00
2022-12-15T21:49:14.555Z,95.80
2022-12-15T21:51:51.996Z,95.90
2022-12-15T21:54:31.333Z,94.80
2022-12-15T21:57:02.860Z,94.90
2022-12-15T21:59:32.721Z,94.40
2022-12-15T22:02:18.040Z,94.50
2022-12-15T22:04:44.879Z,94.20
2022-12-15T22:07:15.719Z,94.60
2022-12-15T22:09:42.598Z,94.30
2022-12-15T22:12:19.358Z,94.10
2022-12-15T22:14:49.478Z,94.00
2022-12-15T22:17:18.850Z,94.00
2022-12-15T22:19:46.082Z,94.30
2022-12-15T22:22:13.870Z,94.30
2022-12-15T22:24:41.016Z,94.20
2022-12-15T22:27:19.119Z,94.00
2022-12-15T22:29:46.907Z,94.00
2022-12-15T22:32:16.019Z,93.90
2022-12-15T22:34:43.276Z,94.30
2022-12-15T22:37:11.480Z,94.10
2022-12-15T22:39:38.333Z,94.30
2022-12-15T22:42:05.678Z,94.10
2022-12-15T22:44:37.230Z,94.00
2022-12-15T22:47:04.781Z,94.00
2022-12-15T22:49:40.473Z,93.90
2022-12-15T22:52:19.536Z,94.00
2022-12-15T22:54:47.007Z,94.00
2022-12-15T22:57:28.574Z,94.20
2022-12-15T23:00:08.067Z,93.90
